Time;durP1;ratioP1;P1;durP2;ratioP2;P2;SDS_P1;SDS_P2;PMS_P1;PMS_P2;Temp;Humidity;BMP_temperature;BMP_pressure;BME280_temperature;BME280_humidity;BME280_pressure;Samples;Min_cycle;Max_cycle;Signal;HPM_P1;HPM_P2
2022/11/30 00:02:28;;;;;;;8.75;4.20;;;8.40;98.40;;;;;;4819524;29;20053;-91
2022/11/30 00:04:56;;;;;;;7.82;4.05;;;8.40;98.40;;;;;;4807580;29;20145;-90
2022/11/30 00:07:23;;;;;;;7.93;4.70;;;8.40;98.40;;;;;;4784193;29;20085;-89
2022/11/30 00:09:50;;;;;;;7.70;4.50;;;8.40;98.40;;;;;;4807916;29;20047;-90
2022/11/30 00:12:22;;;;;;;8.80;5.43;;;8.40;98.40;;;;;;4839121;29;20524;-90
2022/11/30 00:14:49;;;;;;;10.25;5.47;;;8.40;98.30;;;;;;4793784;29;20150;-89
2022/11/30 00:17:16;;;;;;;10.43;5.25;;;8.30;98.30;;;;;;4806374;29;20054;-89
2022/11/30 00:19:43;;;;;;;10.68;5.07;;;8.30;98.30;;;;;;4798399;29;20058;-89
2022/11/30 00:22:10;;;;;;;8.98;5.22;;;8.30;98.30;;;;;;4800799;29;20070;-89
2022/11/30 00:24:37;;;;;;;7.88;4.40;;;8.30;98.30;;;;;;4813362;29;20075;-89
2022/11/30 00:27:04;;;;;;;8.52;5.03;;;8.20;98.20;;;;;;4810699;29;20043;-89
2022/11/30 00:29:31;;;;;;;9.20;4.53;;;8.20;98.30;;;;;;4818332;29;20053;-89
2022/11/30 00:31:59;;;;;;;9.43;5.05;;;8.20;98.30;;;;;;4796717;29;20047;-89
2022/11/30 00:34:26;;;;;;;8.68;4.60;;;8.20;98.30;;;;;;4808906;29;20133;-90
2022/11/30 00:36:53;;;;;;;7.50;4.35;;;8.20;98.30;;;;;;4792004;29;20058;-89
2022/11/30 00:39:20;;;;;;;8.02;4.22;;;8.20;98.20;;;;;;4796705;29;20059;-89
2022/11/30 00:41:48;;;;;;;8.55;4.50;;;8.20;98.30;;;;;;4807393;29;20055;-89
2022/11/30 00:44:15;;;;;;;6.57;3.75;;;8.20;98.30;;;;;;4808307;29;20078;-89
2022/11/30 00:46:42;;;;;;;7.53;3.90;;;8.20;98.20;;;;;;4820384;29;20073;-89
2022/11/30 00:49:09;;;;;;;7.90;5.03;;;8.20;98.20;;;;;;4802657;29;20052;-90
2022/11/30 00:51:39;;;;;;;8.82;5.05;;;8.20;98.20;;;;;;4811092;29;20094;-89
2022/11/30 00:54:06;;;;;;;7.38;3.63;;;8.20;98.20;;;;;;4799353;29;20491;-89
2022/11/30 00:56:33;;;;;;;8.48;3.90;;;8.20;98.20;;;;;;4801171;29;20054;-89
2022/11/30 00:59:00;;;;;;;7.50;4.22;;;8.20;98.20;;;;;;4829264;29;20050;-90
2022/11/30 01:01:28;;;;;;;7.35;4.68;;;8.20;98.40;;;;;;4802734;29;20133;-89
2022/11/30 01:03:55;;;;;;;7.90;4.43;;;8.20;98.20;;;;;;4790609;29;20051;-90
2022/11/30 01:06:24;;;;;;;9.23;4.82;;;8.20;98.20;;;;;;4805400;29;20058;-89
2022/11/30 01:08:52;;;;;;;7.97;4.18;;;8.20;98.20;;;;;;4810692;29;20068;-89
2022/11/30 01:11:25;;;;;;;8.43;4.80;;;8.20;98.20;;;;;;4812298;29;20042;-89
2022/11/30 01:13:53;;;;;;;8.70;4.32;;;8.10;98.10;;;;;;4817441;29;20047;-84
2022/11/30 01:16:25;;;;;;;8.68;4.57;;;8.10;98.10;;;;;;4812712;29;20494;-84
2022/11/30 01:18:55;;;;;;;7.72;4.20;;;8.10;98.20;;;;;;4834298;29;20481;-84
2022/11/30 01:21:27;;;;;;;7.72;4.10;;;8.10;98.20;;;;;;4822387;29;20053;-84
2022/11/30 01:23:54;;;;;;;8.23;4.25;;;8.10;98.20;;;;;;4828694;29;20081;-84
2022/11/30 01:26:22;;;;;;;7.10;4.13;;;8.10;98.20;;;;;;4805299;29;20053;-84
2022/11/30 01:28:54;;;;;;;7.47;4.25;;;8.00;98.10;;;;;;4827965;29;20045;-83
2022/11/30 01:31:25;;;;;;;5.85;3.13;;;8.00;98.10;;;;;;4819996;29;20050;-84
2022/11/30 01:33:54;;;;;;;7.65;3.85;;;8.00;98.10;;;;;;4822159;29;20547;-84
2022/11/30 01:36:24;;;;;;;7.65;4.32;;;8.00;98.10;;;;;;4810658;29;20150;-84
2022/11/30 01:38:54;;;;;;;8.00;4.10;;;8.00;98.10;;;;;;4816383;29;20045;-84
2022/11/30 01:41:27;;;;;;;6.72;3.70;;;8.00;98.10;;;;;;4807448;29;20046;-84
2022/11/30 01:44:15;;;;;;;7.32;3.42;;;8.00;98.10;;;;;;4809339;29;20042;-84
2022/11/30 01:47:01;;;;;;;6.53;3.47;;;8.00;98.10;;;;;;4823087;29;20050;-84
2022/11/30 01:49:43;;;;;;;7.00;3.92;;;8.00;98.10;;;;;;4810422;29;20047;-84
2022/11/30 01:52:16;;;;;;;7.15;3.88;;;7.90;98.10;;;;;;4810086;29;20078;-84
2022/11/30 01:55:00;;;;;;;8.63;4.43;;;7.90;98.10;;;;;;4806486;29;20054;-82
2022/11/30 01:58:15;;;;;;;8.60;4.32;;;8.00;98.10;;;;;;4810405;29;20054;-84
2022/11/30 02:00:46;;;;;;;7.97;3.88;;;7.90;98.10;;;;;;4821823;29;20252;-84
2022/11/30 02:03:35;;;;;;;7.38;3.75;;;7.90;98.20;;;;;;4821455;29;20574;-83
2022/11/30 02:06:02;;;;;;;7.25;3.70;;;7.90;98.10;;;;;;4815543;29;20050;-83
2022/11/30 02:08:30;;;;;;;7.50;4.07;;;7.90;98.10;;;;;;4820434;29;20103;-84
2022/11/30 02:11:02;;;;;;;7.75;3.78;;;7.90;98.10;;;;;;4822756;29;20532;-83
2022/11/30 02:13:53;;;;;;;7.25;4.05;;;7.90;98.10;;;;;;4807067;29;20411;-83
2022/11/30 02:16:49;;;;;;;8.00;4.05;;;7.90;98.00;;;;;;4822197;29;20073;-84
2022/11/30 02:19:54;;;;;;;7.38;4.43;;;7.90;98.00;;;;;;4781281;29;20093;-83
2022/11/30 02:22:36;;;;;;;7.22;3.97;;;7.90;98.00;;;;;;4813498;29;20070;-84
2022/11/30 02:25:18;;;;;;;7.80;3.25;;;7.90;98.00;;;;;;4811888;29;20054;-84
2022/11/30 02:28:13;;;;;;;6.97;3.35;;;7.90;98.00;;;;;;4826800;29;20391;-83
2022/11/30 02:30:45;;;;;;;7.45;4.00;;;7.90;98.00;;;;;;4812223;29;20052;-84
2022/11/30 02:33:17;;;;;;;7.88;3.83;;;7.90;98.00;;;;;;4826025;29;20050;-83
2022/11/30 02:35:49;;;;;;;6.90;3.55;;;7.90;98.00;;;;;;4817575;29;20046;-83
2022/11/30 02:38:22;;;;;;;8.90;4.25;;;7.90;98.00;;;;;;4815356;29;20070;-84
2022/11/30 02:40:50;;;;;;;8.13;4.45;;;7.90;98.00;;;;;;4804853;29;20050;-83
2022/11/30 02:43:22;;;;;;;8.15;4.50;;;7.90;98.00;;;;;;4837257;29;20062;-84
2022/11/30 02:46:08;;;;;;;9.90;4.38;;;7.90;98.00;;;;;;4827535;29;20041;-83
2022/11/30 02:49:25;;;;;;;8.98;4.60;;;7.90;97.90;;;;;;4825086;29;20118;-83
2022/11/30 02:51:55;;;;;;;10.52;5.03;;;7.90;97.90;;;;;;4780566;29;20067;-83
2022/11/30 02:54:23;;;;;;;9.63;4.32;;;7.90;97.90;;;;;;4777264;29;20144;-83
2022/11/30 02:56:53;;;;;;;10.00;5.20;;;7.80;97.90;;;;;;4788847;29;20108;-84
2022/11/30 02:59:20;;;;;;;8.52;4.20;;;7.80;97.90;;;;;;4801535;29;20493;-83
2022/11/30 03:01:50;;;;;;;9.98;5.57;;;7.80;97.90;;;;;;4817994;29;20505;-83
2022/11/30 03:04:17;;;;;;;10.23;5.20;;;7.80;97.90;;;;;;4820306;29;20133;-83
2022/11/30 03:06:44;;;;;;;9.98;4.20;;;7.80;97.90;;;;;;4807277;29;20055;-83
2022/11/30 03:09:12;;;;;;;7.43;3.72;;;7.80;97.90;;;;;;4833151;29;20054;-83
2022/11/30 03:11:40;;;;;;;8.50;5.22;;;7.80;98.20;;;;;;4827531;29;20149;-83
2022/11/30 03:14:07;;;;;;;7.82;4.60;;;7.80;97.90;;;;;;4800752;29;20092;-83
2022/11/30 03:16:37;;;;;;;9.02;4.50;;;7.80;97.90;;;;;;4798252;29;20062;-83
2022/11/30 03:19:04;;;;;;;7.78;4.45;;;7.80;97.90;;;;;;4826934;29;20050;-83
2022/11/30 03:21:31;;;;;;;7.43;4.20;;;7.70;97.90;;;;;;4791536;29;20053;-83
2022/11/30 03:23:58;;;;;;;8.82;4.38;;;7.70;97.90;;;;;;4803523;29;20061;-82
2022/11/30 03:26:25;;;;;;;8.70;4.30;;;7.70;97.90;;;;;;4780679;29;20058;-82
2022/11/30 03:28:56;;;;;;;9.18;4.47;;;7.70;97.90;;;;;;4818352;29;20058;-83
2022/11/30 03:31:23;;;;;;;8.40;4.07;;;7.70;97.90;;;;;;4794942;29;20047;-83
2022/11/30 03:33:50;;;;;;;10.27;5.47;;;7.70;97.90;;;;;;4819450;29;20047;-83
2022/11/30 03:36:17;;;;;;;10.40;6.25;;;7.70;97.90;;;;;;4809058;29;20050;-83
2022/11/30 03:38:46;;;;;;;10.73;6.15;;;7.60;98.20;;;;;;4813362;29;20069;-83
2022/11/30 03:41:15;;;;;;;9.90;4.90;;;7.50;97.90;;;;;;4803251;29;20076;-83
2022/11/30 03:43:43;;;;;;;9.40;4.78;;;7.50;98.00;;;;;;4823148;29;20046;-83
2022/11/30 03:46:11;;;;;;;8.27;4.15;;;7.40;98.00;;;;;;4813323;29;20055;-83
2022/11/30 03:48:40;;;;;;;9.30;4.15;;;7.30;98.00;;;;;;4796063;29;20047;-83
2022/11/30 03:51:08;;;;;;;8.13;4.30;;;7.20;98.10;;;;;;4819534;29;20078;-83
2022/11/30 03:53:36;;;;;;;8.50;4.30;;;7.20;98.10;;;;;;4793562;29;20111;-84
2022/11/30 03:56:06;;;;;;;7.40;4.10;;;7.10;98.20;;;;;;4822689;29;20122;-83
2022/11/30 03:58:33;;;;;;;7.90;3.50;;;7.00;98.20;;;;;;4808507;29;20099;-83
2022/11/30 04:01:09;;;;;;;7.85;3.95;;;6.90;98.20;;;;;;4793644;29;20042;-89
2022/11/30 04:03:37;;;;;;;9.20;5.00;;;6.90;98.30;;;;;;4821866;29;20076;-89
2022/11/30 04:06:06;;;;;;;9.20;4.55;;;6.80;98.30;;;;;;4816410;29;20042;-89
2022/11/30 04:08:33;;;;;;;9.32;4.95;;;6.70;98.30;;;;;;4809758;29;20061;-88
2022/11/30 04:11:01;;;;;;;10.25;5.05;;;6.60;98.40;;;;;;4812170;29;20042;-89
2022/11/30 04:13:30;;;;;;;10.00;5.05;;;6.60;98.40;;;;;;4827762;29;20057;-88
2022/11/30 04:15:57;;;;;;;11.38;5.20;;;6.50;98.40;;;;;;4815342;29;20141;-89
2022/11/30 04:18:26;;;;;;;7.93;4.10;;;6.40;98.40;;;;;;4808926;29;20107;-89
2022/11/30 04:20:55;;;;;;;8.63;3.88;;;6.40;98.50;;;;;;4800276;29;20061;-88
2022/11/30 04:23:24;;;;;;;9.85;5.22;;;6.30;98.50;;;;;;4814230;29;20055;-88
2022/11/30 04:25:55;;;;;;;8.75;4.95;;;6.30;98.50;;;;;;4808542;29;20054;-89
2022/11/30 04:28:25;;;;;;;8.88;4.22;;;6.30;98.50;;;;;;4792331;29;20142;-88
2022/11/30 04:30:53;;;;;;;7.07;3.63;;;6.20;98.50;;;;;;4826408;29;20102;-89
2022/11/30 04:33:20;;;;;;;6.88;3.40;;;6.20;98.60;;;;;;4822207;29;20050;-88
2022/11/30 04:35:54;;;;;;;6.70;3.80;;;6.20;98.60;;;;;;4794301;29;20050;-88
2022/11/30 04:38:22;;;;;;;6.43;3.80;;;6.10;98.60;;;;;;4821980;29;20105;-89
2022/11/30 04:40:49;;;;;;;7.97;3.58;;;6.10;98.60;;;;;;4814384;29;20137;-88
2022/11/30 04:43:20;;;;;;;6.70;3.63;;;6.10;98.60;;;;;;4808715;29;20058;-88
2022/11/30 04:45:47;;;;;;;6.55;3.40;;;6.00;98.60;;;;;;4801589;29;20062;-88
2022/11/30 04:48:15;;;;;;;8.90;4.07;;;6.00;98.60;;;;;;4817145;29;20486;-88
2022/11/30 04:50:43;;;;;;;7.88;3.35;;;6.00;98.70;;;;;;4809072;29;20422;-88
2022/11/30 04:53:10;;;;;;;5.78;2.80;;;5.90;98.80;;;;;;4816660;29;20054;-88
2022/11/30 04:55:38;;;;;;;8.38;4.07;;;5.90;98.70;;;;;;4820425;29;20054;-88
2022/11/30 04:58:05;;;;;;;8.00;3.47;;;5.90;98.70;;;;;;4784062;30;20051;-88
2022/11/30 05:00:33;;;;;;;8.73;4.38;;;5.90;98.80;;;;;;4802815;29;20418;-88
2022/11/30 05:03:01;;;;;;;8.38;3.83;;;5.90;98.80;;;;;;4810739;29;20058;-88
2022/11/30 05:05:28;;;;;;;7.95;3.78;;;5.90;98.80;;;;;;4801623;29;20103;-88
2022/11/30 05:07:57;;;;;;;7.70;4.20;;;5.80;98.70;;;;;;4808096;29;20054;-88
2022/11/30 05:10:25;;;;;;;8.40;3.92;;;5.80;98.70;;;;;;4817929;29;20050;-88
2022/11/30 05:12:55;;;;;;;6.03;3.25;;;5.80;98.70;;;;;;4823912;29;20588;-88
2022/11/30 05:15:22;;;;;;;7.95;4.18;;;5.80;98.70;;;;;;4816067;29;20070;-89
2022/11/30 05:17:50;;;;;;;7.40;3.40;;;5.80;98.80;;;;;;4825468;29;20066;-88
2022/11/30 05:20:19;;;;;;;7.72;4.18;;;5.70;98.80;;;;;;4819407;29;20050;-88
2022/11/30 05:22:48;;;;;;;7.25;3.63;;;5.70;98.80;;;;;;4798338;29;20055;-88
2022/11/30 05:25:15;;;;;;;8.80;3.95;;;5.70;98.80;;;;;;4789082;29;20050;-88
2022/11/30 05:27:42;;;;;;;8.05;3.35;;;5.70;98.80;;;;;;4786806;29;20046;-88
2022/11/30 05:30:10;;;;;;;7.03;3.95;;;5.70;98.80;;;;;;4793531;29;20046;-88
2022/11/30 05:32:37;;;;;;;9.70;4.60;;;5.70;98.80;;;;;;4822045;29;20046;-89
2022/11/30 05:35:04;;;;;;;8.38;4.00;;;5.70;98.80;;;;;;4795540;29;20577;-88
2022/11/30 05:37:31;;;;;;;9.38;4.85;;;5.70;98.80;;;;;;4808190;29;20139;-89
2022/11/30 05:39:58;;;;;;;9.05;4.55;;;5.70;98.80;;;;;;4836145;29;20053;-88
2022/11/30 05:42:26;;;;;;;8.30;4.40;;;5.70;98.80;;;;;;4799475;29;20054;-88
2022/11/30 05:44:55;;;;;;;8.88;4.82;;;5.70;98.90;;;;;;4792103;29;20076;-89
2022/11/30 05:47:22;;;;;;;9.48;4.18;;;5.70;98.80;;;;;;4778378;29;20427;-88
2022/11/30 05:49:56;;;;;;;8.50;4.10;;;5.70;98.90;;;;;;4811377;29;20055;-88
2022/11/30 05:52:23;;;;;;;9.05;4.60;;;5.60;98.80;;;;;;4807590;29;20039;-88
2022/11/30 05:54:50;;;;;;;8.15;4.20;;;5.60;98.80;;;;;;4796731;29;20157;-88
2022/11/30 05:57:17;;;;;;;7.28;4.03;;;5.60;98.80;;;;;;4826014;29;20054;-88
2022/11/30 05:59:44;;;;;;;8.95;4.70;;;5.60;98.90;;;;;;4823402;29;20104;-88
2022/11/30 06:02:11;;;;;;;7.53;4.22;;;5.60;98.80;;;;;;4787673;29;20581;-83
2022/11/30 06:04:38;;;;;;;8.95;4.68;;;5.60;98.80;;;;;;4810567;29;20584;-83
2022/11/30 06:07:10;;;;;;;7.07;3.72;;;5.60;98.90;;;;;;4800274;29;20043;-84
2022/11/30 06:09:38;;;;;;;7.43;3.85;;;5.60;98.90;;;;;;4818954;29;20455;-84
2022/11/30 06:12:06;;;;;;;7.95;4.53;;;5.50;98.80;;;;;;4815813;29;20057;-86
2022/11/30 06:14:35;;;;;;;7.53;4.00;;;5.50;98.80;;;;;;4823666;29;20074;-86
2022/11/30 06:17:08;;;;;;;8.35;3.90;;;5.50;98.80;;;;;;4817293;29;20071;-89
2022/11/30 06:19:35;;;;;;;6.30;3.20;;;5.50;98.90;;;;;;4792413;29;20062;-86
2022/11/30 06:22:05;;;;;;;8.82;4.63;;;5.50;98.90;;;;;;4807386;29;20057;-85
2022/11/30 06:24:32;;;;;;;6.97;3.20;;;5.40;98.90;;;;;;4825361;29;20074;-86
2022/11/30 06:27:00;;;;;;;7.07;4.05;;;5.40;98.90;;;;;;4808349;29;20047;-85
2022/11/30 06:29:27;;;;;;;7.20;3.63;;;5.40;98.90;;;;;;4823776;29;20050;-85
2022/11/30 06:31:54;;;;;;;6.95;3.47;;;5.40;98.90;;;;;;4798870;29;20037;-87
2022/11/30 06:34:24;;;;;;;6.28;3.53;;;5.30;98.90;;;;;;4809610;29;20074;-87
2022/11/30 06:36:56;;;;;;;8.55;4.30;;;5.30;98.90;;;;;;4804677;29;20054;-88
2022/11/30 06:39:24;;;;;;;8.98;4.90;;;5.30;99.00;;;;;;4818430;29;20144;-86
2022/11/30 06:42:11;;;;;;;9.38;4.72;;;5.30;99.00;;;;;;4824066;29;20146;-86
2022/11/30 06:44:55;;;;;;;8.52;4.70;;;5.30;99.00;;;;;;4780905;29;20042;-91
2022/11/30 06:47:26;;;;;;;8.90;4.95;;;5.30;99.00;;;;;;4810684;29;20050;-88
2022/11/30 06:50:03;;;;;;;9.18;5.00;;;5.30;99.00;;;;;;4819439;29;20509;-89
2022/11/30 06:52:31;;;;;;;9.02;4.53;;;5.30;99.00;;;;;;4816586;29;20541;-89
2022/11/30 06:54:58;;;;;;;7.82;4.53;;;5.30;99.00;;;;;;4813479;29;20099;-84
2022/11/30 06:57:29;;;;;;;8.50;5.07;;;5.30;99.00;;;;;;4811248;29;20058;-84
2022/11/30 06:59:56;;;;;;;12.95;7.03;;;5.30;98.90;;;;;;4807616;29;20053;-84
2022/11/30 07:02:26;;;;;;;12.48;6.88;;;5.30;98.90;;;;;;4840303;29;20060;-84
2022/11/30 07:04:54;;;;;;;11.63;7.25;;;5.30;98.90;;;;;;4819489;29;20051;-84
2022/11/30 07:07:21;;;;;;;13.32;7.35;;;5.30;98.90;;;;;;4809563;29;20046;-85
2022/11/30 07:09:49;;;;;;;13.63;7.72;;;5.20;98.90;;;;;;4811692;29;20054;-84
2022/11/30 07:12:21;;;;;;;14.70;7.45;;;5.20;98.90;;;;;;4831286;29;20090;-84
2022/11/30 07:14:55;;;;;;;12.98;6.68;;;5.20;98.90;;;;;;4841770;29;20434;-88
2022/11/30 07:17:25;;;;;;;14.70;7.03;;;5.20;98.90;;;;;;4822607;29;20054;-88
2022/11/30 07:19:55;;;;;;;10.40;5.47;;;5.20;98.90;;;;;;4805541;29;20145;-89
2022/11/30 07:22:22;;;;;;;9.20;5.18;;;5.20;98.90;;;;;;4803275;29;20054;-88
2022/11/30 07:27:38;;;;;;;9.20;4.68;;;5.20;99.00;;;;;;4808044;29;20047;-89
2022/11/30 07:30:06;;;;;;;8.38;4.75;;;5.20;99.00;;;;;;4796736;29;20042;-88
2022/11/30 07:32:38;;;;;;;8.65;4.70;;;5.20;99.00;;;;;;4804044;29;20054;-88
2022/11/30 07:35:05;;;;;;;8.07;4.20;;;5.20;99.00;;;;;;4789871;29;20065;-88
2022/11/30 07:37:33;;;;;;;8.60;4.07;;;5.20;99.00;;;;;;4805073;29;20104;-87
2022/11/30 07:40:00;;;;;;;10.70;5.53;;;5.20;99.00;;;;;;4799088;29;20110;-87
2022/11/30 07:42:27;;;;;;;8.07;4.38;;;5.30;99.00;;;;;;4778490;29;20055;-88
2022/11/30 07:44:54;;;;;;;8.80;4.25;;;5.30;99.00;;;;;;4783853;29;20053;-88
2022/11/30 07:47:25;;;;;;;6.95;3.53;;;5.30;99.00;;;;;;4766333;29;20103;-86
2022/11/30 07:49:55;;;;;;;6.28;3.28;;;5.30;98.90;;;;;;4797689;29;20443;-88
2022/11/30 07:52:23;;;;;;;7.00;3.70;;;5.30;98.90;;;;;;4806303;29;20058;-88
2022/11/30 07:54:50;;;;;;;5.88;3.00;;;5.40;98.90;;;;;;4809563;29;20047;-87
2022/11/30 07:57:17;;;;;;;6.25;3.42;;;5.40;99.00;;;;;;4805209;29;20050;-88
2022/11/30 07:59:44;;;;;;;7.28;3.78;;;5.50;99.00;;;;;;4812860;29;20047;-88
2022/11/30 08:02:12;;;;;;;6.25;3.33;;;5.60;99.00;;;;;;4797427;29;20049;-88
2022/11/30 08:04:42;;;;;;;7.57;3.83;;;5.60;98.90;;;;;;4797712;29;20069;-88
2022/11/30 08:07:10;;;;;;;8.18;3.80;;;5.70;98.90;;;;;;4785443;29;20100;-88
2022/11/30 08:09:40;;;;;;;7.32;3.92;;;5.80;98.80;;;;;;4779250;29;20552;-88
2022/11/30 08:12:07;;;;;;;8.68;4.30;;;5.80;98.80;;;;;;4803532;29;20050;-88
2022/11/30 08:14:35;;;;;;;8.70;4.82;;;5.90;98.70;;;;;;4799236;29;20069;-88
2022/11/30 08:17:24;;;;;;;8.32;4.50;;;5.90;98.60;;;;;;4789548;29;20110;-88
2022/11/30 08:19:58;;;;;;;8.27;4.07;;;5.90;98.90;;;;;;4814350;29;20108;-88
2022/11/30 08:22:26;;;;;;;6.28;3.53;;;5.90;98.60;;;;;;4763146;29;20039;-89
2022/11/30 08:24:53;;;;;;;7.20;3.58;;;6.00;98.60;;;;;;4784810;29;20058;-89
2022/11/30 08:27:20;;;;;;;6.28;3.42;;;6.00;98.60;;;;;;4805601;29;20066;-88
2022/11/30 08:29:50;;;;;;;7.30;3.47;;;6.10;98.60;;;;;;4794662;29;20060;-88
2022/11/30 08:32:22;;;;;;;7.03;4.13;;;6.20;98.60;;;;;;4791756;29;20395;-89
2022/11/30 08:34:49;;;;;;;7.72;4.43;;;6.20;98.50;;;;;;4804323;29;20058;-88
2022/11/30 08:37:16;;;;;;;7.38;3.22;;;6.30;98.50;;;;;;4802589;29;20518;-88
2022/11/30 08:39:43;;;;;;;8.73;3.75;;;6.30;98.40;;;;;;4796764;29;20120;-88
2022/11/30 08:42:11;;;;;;;6.38;3.80;;;6.40;98.40;;;;;;4803141;29;20066;-89
2022/11/30 08:44:38;;;;;;;6.40;3.50;;;6.40;98.40;;;;;;4806637;29;20047;-88
2022/11/30 08:47:07;;;;;;;7.75;3.83;;;6.40;98.30;;;;;;4812823;29;20042;-89
2022/11/30 08:49:34;;;;;;;8.38;4.35;;;6.50;98.30;;;;;;4800110;29;20075;-88
2022/11/30 08:52:01;;;;;;;9.13;4.80;;;6.50;98.30;;;;;;4777096;29;20058;-88
2022/11/30 08:54:46;;;;;;;8.57;3.63;;;6.50;98.20;;;;;;4796964;29;20136;-88
2022/11/30 08:57:16;;;;;;;8.18;3.75;;;6.60;98.30;;;;;;4797122;29;20150;-89
2022/11/30 08:59:46;;;;;;;9.20;4.28;;;6.60;98.20;;;;;;4794951;29;20061;-88
2022/11/30 09:02:18;;;;;;;12.55;5.88;;;6.60;98.20;;;;;;4781999;29;20494;-89
2022/11/30 09:04:47;;;;;;;12.02;6.15;;;6.70;98.20;;;;;;4789865;29;20051;-89
2022/11/30 09:07:35;;;;;;;12.48;5.40;;;6.70;98.10;;;;;;4798217;29;20506;-89
2022/11/30 09:10:02;;;;;;;10.65;5.40;;;6.70;98.20;;;;;;4796331;29;20051;-89
2022/11/30 09:12:29;;;;;;;14.25;7.25;;;6.80;98.10;;;;;;4787732;29;20057;-89
2022/11/30 09:14:56;;;;;;;11.70;5.97;;;6.80;98.10;;;;;;4787741;29;20042;-89
2022/11/30 09:17:25;;;;;;;12.43;6.50;;;6.80;98.10;;;;;;4793711;29;20120;-88
2022/11/30 09:19:55;;;;;;;13.68;6.97;;;6.90;98.10;;;;;;4817087;29;20054;-88
2022/11/30 09:22:26;;;;;;;13.38;6.63;;;6.90;98.00;;;;;;4826121;29;20054;-89
2022/11/30 09:24:53;;;;;;;12.50;6.85;;;6.90;98.00;;;;;;4826740;29;20054;-89
2022/11/30 09:27:21;;;;;;;10.93;6.13;;;6.90;97.90;;;;;;4844257;29;20416;-84
2022/11/30 09:29:48;;;;;;;10.20;4.85;;;7.00;98.00;;;;;;4831111;29;20047;-84
2022/11/30 09:32:15;;;;;;;12.45;5.95;;;7.00;97.90;;;;;;4848370;29;20038;-84
2022/11/30 09:34:43;;;;;;;11.90;5.53;;;7.00;97.90;;;;;;4807764;29;20457;-84
2022/11/30 09:37:10;;;;;;;10.32;5.90;;;7.10;97.90;;;;;;4828628;29;20119;-84
2022/11/30 09:39:37;;;;;;;13.85;5.60;;;7.10;97.90;;;;;;4835260;29;20054;-84
2022/11/30 09:42:20;;;;;;;11.25;5.20;;;7.20;97.90;;;;;;4814302;29;20053;-84
2022/11/30 09:45:09;;;;;;;9.98;4.95;;;7.20;97.90;;;;;;4826912;29;20076;-84
2022/11/30 09:47:57;;;;;;;11.93;5.85;;;7.20;97.80;;;;;;4844958;29;20111;-84
2022/11/30 09:50:28;;;;;;;13.25;6.20;;;7.20;97.80;;;;;;4833595;29;20098;-84
2022/11/30 09:53:07;;;;;;;13.88;6.28;;;7.30;97.70;;;;;;4813958;29;20453;-83
2022/11/30 09:55:57;;;;;;;13.13;6.55;;;7.30;97.70;;;;;;4837262;29;20370;-84
2022/11/30 09:58:36;;;;;;;18.05;7.82;;;7.30;97.70;;;;;;4829554;29;20050;-84
2022/11/30 10:01:13;;;;;;;12.82;7.00;;;7.30;97.70;;;;;;4827615;29;20577;-84
2022/11/30 10:03:40;;;;;;;10.98;6.32;;;7.40;97.70;;;;;;4840879;29;20062;-84
2022/11/30 10:06:17;;;;;;;14.25;6.50;;;7.40;97.60;;;;;;4828110;29;20073;-84
2022/11/30 10:09:23;;;;;;;12.57;6.07;;;7.40;97.60;;;;;;4833981;29;20141;-85
2022/11/30 10:12:27;;;;;;;13.27;6.22;;;7.40;97.60;;;;;;4814410;29;20599;-84
2022/11/30 10:15:16;;;;;;;13.30;6.93;;;7.30;97.60;;;;;;4829265;29;20078;-84
2022/11/30 10:18:01;;;;;;;15.43;7.45;;;7.20;97.60;;;;;;4805009;29;20046;-84
2022/11/30 10:20:37;;;;;;;12.45;6.60;;;7.10;97.70;;;;;;4827044;29;20403;-85
2022/11/30 10:23:34;;;;;;;13.30;5.85;;;7.00;97.70;;;;;;4813254;29;20042;-84
2022/11/30 10:26:08;;;;;;;9.82;4.70;;;7.00;97.80;;;;;;4830899;29;20050;-85
2022/11/30 10:28:44;;;;;;;;;;;7.00;97.90;;;;;;4816600;29;20057;-84
2022/11/30 10:31:15;;;;;;;9.90;4.57;;;6.90;97.90;;;;;;4824126;29;19928;-84
2022/11/30 10:33:50;;;;;;;10.43;5.07;;;6.90;97.90;;;;;;4825802;29;20131;-89
2022/11/30 10:36:32;;;;;;;12.90;5.80;;;6.90;97.90;;;;;;4829594;29;20053;-89
2022/11/30 10:39:03;;;;;;;13.02;6.50;;;6.90;97.90;;;;;;4836744;29;20141;-89
2022/11/30 10:41:36;;;;;;;13.32;7.15;;;6.90;97.90;;;;;;4830808;29;20054;-89
2022/11/30 10:44:11;;;;;;;15.48;7.75;;;6.90;98.00;;;;;;4837364;29;20062;-89
2022/11/30 10:46:46;;;;;;;14.68;7.55;;;6.90;97.90;;;;;;4811177;29;20050;-89
2022/11/30 10:49:17;;;;;;;15.30;7.22;;;7.00;97.90;;;;;;4825565;29;20050;-89
2022/11/30 10:51:49;;;;;;;10.18;5.70;;;7.00;97.80;;;;;;4848367;29;20128;-89
2022/11/30 10:54:21;;;;;;;13.18;6.68;;;7.00;97.90;;;;;;4825320;29;20054;-89
2022/11/30 10:56:48;;;;;;;13.45;6.45;;;7.00;97.90;;;;;;4845897;29;20051;-90
2022/11/30 10:59:23;;;;;;;11.63;6.05;;;7.00;97.80;;;;;;4840114;29;20057;-89
2022/11/30 11:01:53;;;;;;;10.05;4.80;;;7.00;97.80;;;;;;4818941;29;20077;-89
2022/11/30 11:04:24;;;;;;;;;;;7.00;97.80;;;;;;4843128;29;20153;-90
2022/11/30 11:07:13;;;;;;;13.50;7.15;;;7.00;97.80;;;;;;4812774;29;19928;-90
2022/11/30 11:09:45;;;;;;;11.77;6.20;;;7.00;97.80;;;;;;4836870;29;20046;-90
2022/11/30 11:12:29;;;;;;;15.35;7.90;;;7.10;97.80;;;;;;4820685;29;20046;-89
2022/11/30 11:15:27;;;;;;;14.85;7.43;;;7.20;97.80;;;;;;4830868;29;20141;-90
2022/11/30 11:18:31;;;;;;;11.25;6.00;;;7.20;97.70;;;;;;4824446;29;20051;-90
2022/11/30 11:21:04;;;;;;;12.13;6.57;;;7.30;97.70;;;;;;4746953;30;20055;-89
2022/11/30 11:23:41;;;;;;;11.38;6.05;;;7.30;97.70;;;;;;4791464;29;20107;-90
2022/11/30 11:26:26;;;;;;;13.95;7.00;;;7.40;97.60;;;;;;4791630;29;20043;-90
2022/11/30 11:28:58;;;;;;;13.02;7.38;;;7.50;97.60;;;;;;4772304;29;20378;-90
2022/11/30 11:31:45;;;;;;;14.67;7.97;;;7.50;97.50;;;;;;4804508;29;20050;-90
2022/11/30 11:34:33;;;;;;;13.30;6.93;;;7.50;97.40;;;;;;4791510;29;20368;-90
2022/11/30 11:37:22;;;;;;;13.43;6.65;;;7.60;97.40;;;;;;4805224;29;20051;-89
2022/11/30 11:40:14;;;;;;;20.77;9.63;;;7.50;97.40;;;;;;4809312;29;20058;-89
2022/11/30 11:42:51;;;;;;;22.13;9.13;;;7.50;97.40;;;;;;4782511;29;20625;-90
2022/11/30 11:45:31;;;;;;;16.02;7.93;;;7.50;97.40;;;;;;4795122;29;20057;-90
2022/11/30 11:48:02;;;;;;;12.65;7.03;;;7.50;97.40;;;;;;4791635;29;20156;-90
2022/11/30 11:50:32;;;;;;;12.80;6.73;;;7.50;97.50;;;;;;4786652;29;20057;-90
2022/11/30 11:53:23;;;;;;;15.20;8.75;;;7.60;97.50;;;;;;4807173;29;20051;-90
2022/11/30 11:56:03;;;;;;;14.73;6.80;;;7.60;97.40;;;;;;4785541;29;20070;-90
2022/11/30 11:58:50;;;;;;;13.80;7.15;;;7.70;97.40;;;;;;4779225;29;20058;-85
2022/11/30 12:01:47;;;;;;;15.57;7.15;;;7.80;97.30;;;;;;4787935;29;20429;-90
2022/11/30 12:04:41;;;;;;;12.15;5.43;;;8.00;97.30;;;;;;4780096;29;20163;-84
2022/11/30 12:07:19;;;;;;;13.05;6.70;;;8.10;97.10;;;;;;4783452;29;20051;-87
2022/11/30 12:09:58;;;;;;;17.00;7.72;;;8.20;97.00;;;;;;4809353;29;20112;-86
2022/11/30 12:12:27;;;;;;;11.65;6.28;;;8.20;96.90;;;;;;4785774;29;20104;-86
2022/11/30 12:14:55;;;;;;;13.90;7.95;;;8.20;97.00;;;;;;4805138;29;20425;-87
2022/11/30 12:18:01;;;;;;;12.18;6.10;;;8.30;96.90;;;;;;4816177;29;20047;-86
2022/11/30 12:20:55;;;;;;;12.77;6.93;;;8.30;96.80;;;;;;4754406;30;20057;-93
2022/11/30 12:23:36;;;;;;;12.88;6.40;;;8.30;96.70;;;;;;4808452;29;20055;-89
2022/11/30 12:26:30;;;;;;;13.30;7.53;;;8.30;96.80;;;;;;4808951;29;20050;-89
2022/11/30 12:29:21;;;;;;;13.25;6.53;;;8.30;96.80;;;;;;4804600;29;20051;-90
2022/11/30 12:32:01;;;;;;;14.95;6.72;;;8.30;96.80;;;;;;4840541;29;20509;-90
2022/11/30 12:34:46;;;;;;;13.50;7.60;;;8.30;96.80;;;;;;4782857;29;20498;-89
2022/11/30 12:37:44;;;;;;;13.27;7.65;;;8.30;96.70;;;;;;4822891;29;20050;-89
2022/11/30 12:40:36;;;;;;;15.02;7.38;;;8.30;96.70;;;;;;4813974;29;20142;-92
2022/11/30 12:43:30;;;;;;;13.45;6.32;;;8.30;96.70;;;;;;4818461;29;20145;-91
2022/11/30 12:46:30;;;;;;;12.60;6.30;;;8.30;96.60;;;;;;4824879;29;20054;-91
2022/11/30 12:49:18;;;;;;;13.65;7.20;;;8.40;96.60;;;;;;4823086;29;20050;-91
2022/11/30 12:52:24;;;;;;;12.27;6.07;;;8.40;96.50;;;;;;4829774;29;20078;-92
2022/11/30 12:55:27;;;;;;;14.80;7.32;;;8.40;96.80;;;;;;4821724;29;20054;-89
2022/11/30 12:58:00;;;;;;;11.85;7.30;;;8.40;96.40;;;;;;4814589;29;20090;-90
2022/11/30 13:00:41;;;;;;;13.88;8.32;;;8.40;96.50;;;;;;4796814;29;20077;-91
2022/11/30 13:03:35;;;;;;;12.27;6.93;;;8.40;96.30;;;;;;4810650;29;20050;-89
2022/11/30 13:06:26;;;;;;;13.40;6.47;;;8.40;96.40;;;;;;4816306;29;20058;-89
2022/11/30 13:09:13;;;;;;;10.75;6.28;;;8.40;96.40;;;;;;4831916;29;20051;-88
2022/11/30 13:11:44;;;;;;;12.65;6.65;;;8.40;96.50;;;;;;4839084;29;20128;-89
2022/11/30 13:14:21;;;;;;;12.70;6.10;;;8.30;96.40;;;;;;4830522;29;20046;-88
2022/11/30 13:17:02;;;;;;;11.75;6.45;;;8.40;96.40;;;;;;4828465;29;20051;-88
2022/11/30 13:20:06;;;;;;;9.68;4.75;;;8.40;96.50;;;;;;4823173;29;20058;-90
2022/11/30 13:22:51;;;;;;;10.48;5.47;;;8.40;96.40;;;;;;4829985;29;20058;-87
2022/11/30 13:25:43;;;;;;;10.52;5.40;;;8.40;96.40;;;;;;4845704;29;20109;-88
2022/11/30 13:28:40;;;;;;;8.98;4.50;;;8.40;96.40;;;;;;4816716;29;20573;-88
2022/11/30 13:31:24;;;;;;;10.00;5.05;;;8.40;96.40;;;;;;4823174;29;20051;-87